Terminal Aerodrome Forecast
Issued by NWS

Home | Current Version | Previous Version | Graphics & Text | Print | Product List | Glossary On
Versions: 1 2 3 4 5 6 7 8 9 10 11 12 13 14 15 16 17 18
963
FTUS43 KFGF 171138
TAFBJI
TAF
KBJI 171138Z 1712/1812 27015KT P6SM OVC015
      TEMPO 1712/1714 SCT015
     FM171500 27012G20KT P6SM BKN015
     FM171700 27011KT P6SM BKN040
     FM180800 17004KT P6SM SCT200=

USA.gov is the U.S. government's official web portal to all federal, state and local government web resources and services.